createdAt,value
2022-09-16T00:02:19.436Z,22.20
2022-09-16T00:05:21.816Z,22.20
2022-09-16T00:08:24.004Z,22.10
2022-09-16T00:11:26.017Z,22.10
2022-09-16T00:14:28.116Z,22.10
2022-09-16T00:17:31.675Z,22.10
2022-09-16T00:20:34.808Z,22.00
2022-09-16T00:23:47.140Z,22.00
2022-09-16T00:26:49.269Z,21.90
2022-09-16T00:29:51.548Z,21.80
2022-09-16T00:32:54.090Z,21.80
2022-09-16T00:36:06.926Z,21.70
2022-09-16T00:39:09.062Z,21.70
2022-09-16T00:42:12.240Z,21.60
2022-09-16T00:45:23.460Z,21.60
2022-09-16T00:48:27.771Z,21.60
2022-09-16T00:51:30.077Z,21.40
2022-09-16T00:54:34.540Z,21.40
2022-09-16T00:57:39.461Z,21.50
2022-09-16T01:00:42.010Z,21.50
2022-09-16T01:03:51.886Z,21.50
2022-09-16T01:06:54.566Z,21.50
2022-09-16T01:09:57.004Z,21.60
2022-09-16T01:13:05.756Z,21.60
2022-09-16T01:16:35.699Z,21.60
2022-09-16T01:20:16.499Z,21.60
2022-09-16T01:23:58.331Z,21.60
2022-09-16T01:27:31.765Z,21.60
2022-09-16T01:30:41.099Z,21.60
2022-09-16T01:34:10.635Z,21.50
2022-09-16T01:37:34.220Z,21.50
2022-09-16T01:40:49.908Z,21.50
2022-09-16T01:44:27.454Z,21.50
2022-09-16T01:47:54.444Z,21.60
2022-09-16T01:51:18.072Z,21.60
2022-09-16T01:55:15.205Z,21.70
2022-09-16T01:58:27.017Z,21.80
2022-09-16T02:01:55.886Z,21.80
2022-09-16T02:05:03.218Z,21.80
2022-09-16T02:08:15.076Z,21.70
2022-09-16T02:11:19.346Z,21.60
2022-09-16T02:14:24.299Z,21.70
2022-09-16T02:17:30.341Z,21.70
2022-09-16T02:20:36.400Z,21.60
2022-09-16T02:23:42.767Z,21.60
2022-09-16T02:26:50.180Z,21.60
2022-09-16T02:30:11.367Z,21.50
2022-09-16T02:33:14.895Z,21.60
2022-09-16T02:36:23.707Z,21.60
2022-09-16T02:39:30.882Z,21.70
2022-09-16T02:42:34.668Z,21.70
2022-09-16T02:45:47.314Z,21.80
2022-09-16T02:49:05.982Z,21.80
2022-09-16T02:52:16.638Z,21.80
2022-09-16T02:55:51.347Z,21.80
2022-09-16T02:58:56.316Z,21.80
2022-09-16T03:02:01.259Z,21.80
2022-09-16T03:05:04.004Z,21.90
2022-09-16T03:08:07.419Z,21.80
2022-09-16T03:11:36.247Z,21.80
2022-09-16T03:15:17.400Z,21.80
2022-09-16T03:18:38.116Z,21.70
2022-09-16T03:21:55.221Z,21.60
2022-09-16T03:24:57.455Z,21.50
2022-09-16T03:28:10.980Z,21.40
2022-09-16T03:31:26.679Z,21.40
2022-09-16T03:34:46.559Z,21.30
2022-09-16T03:37:50.008Z,21.30
2022-09-16T03:40:53.201Z,21.30
2022-09-16T03:44:01.449Z,21.30
2022-09-16T03:47:09.163Z,21.30
2022-09-16T03:50:11.264Z,21.20
2022-09-16T03:53:13.328Z,21.20
2022-09-16T03:56:15.302Z,21.20
2022-09-16T03:59:17.795Z,21.30
2022-09-16T04:02:20.124Z,21.30
2022-09-16T04:05:22.247Z,21.30
2022-09-16T04:08:26.991Z,21.30
2022-09-16T04:11:32.339Z,21.30
2022-09-16T04:14:35.197Z,21.20
2022-09-16T04:17:37.385Z,21.30
2022-09-16T04:20:40.986Z,21.30
2022-09-16T04:23:43.160Z,21.40
2022-09-16T04:26:46.203Z,21.40
2022-09-16T04:29:48.854Z,21.40
2022-09-16T04:32:54.672Z,21.40
2022-09-16T04:36:21.117Z,21.40
2022-09-16T04:39:23.091Z,21.40
2022-09-16T04:42:25.225Z,21.30
2022-09-16T04:45:27.564Z,21.30
2022-09-16T04:48:30.577Z,21.20
2022-09-16T04:51:33.554Z,21.30
2022-09-16T04:54:35.620Z,21.20
2022-09-16T04:57:37.727Z,21.30
2022-09-16T05:00:39.876Z,21.30
2022-09-16T05:03:47.473Z,21.30
2022-09-16T05:06:49.574Z,21.20
2022-09-16T05:09:52.916Z,21.10
2022-09-16T05:12:55.364Z,21.20
2022-09-16T05:16:09.385Z,21.00
2022-09-16T05:19:13.308Z,20.90
2022-09-16T05:22:15.319Z,20.90
2022-09-16T05:25:22.029Z,20.90
2022-09-16T05:28:25.139Z,21.00
2022-09-16T05:31:30.551Z,21.00
2022-09-16T05:34:36.240Z,21.00
2022-09-16T05:37:38.296Z,21.00
2022-09-16T05:40:40.494Z,21.10
2022-09-16T05:43:43.764Z,21.10
2022-09-16T05:46:45.997Z,21.00
2022-09-16T05:49:48.043Z,21.00
2022-09-16T05:52:50.619Z,21.00
2022-09-16T05:56:02.305Z,21.00
2022-09-16T05:59:12.235Z,21.10
2022-09-16T06:02:14.288Z,21.00
2022-09-16T06:05:16.867Z,21.00
2022-09-16T06:08:19.061Z,21.10
2022-09-16T06:11:22.185Z,21.00
2022-09-16T06:14:24.413Z,21.00
2022-09-16T06:17:27.498Z,21.10
2022-09-16T06:20:29.551Z,21.10
2022-09-16T06:23:31.968Z,21.20
2022-09-16T06:26:33.991Z,21.20
2022-09-16T06:29:36.055Z,21.20
2022-09-16T06:32:38.252Z,21.20
2022-09-16T06:35:40.307Z,21.30
2022-09-16T06:38:42.707Z,21.30
2022-09-16T06:41:46.089Z,21.40
2022-09-16T06:44:48.146Z,21.50
2022-09-16T06:47:50.206Z,21.50
2022-09-16T06:50:59.346Z,21.60
2022-09-16T06:54:07.397Z,21.60
2022-09-16T06:57:12.299Z,21.70
2022-09-16T07:00:15.219Z,21.80
2022-09-16T07:03:17.773Z,21.90
2022-09-16T07:06:21.473Z,22.40
2022-09-16T07:09:24.194Z,23.20
2022-09-16T07:12:26.566Z,23.90
2022-09-16T07:15:28.684Z,24.70
2022-09-16T07:18:32.415Z,25.80
2022-09-16T07:21:34.478Z,26.80
2022-09-16T07:24:36.503Z,27.20
2022-09-16T07:27:38.641Z,28.00
2022-09-16T07:30:41.401Z,28.10
2022-09-16T07:33:46.226Z,28.70
2022-09-16T07:36:50.039Z,29.20
2022-09-16T07:39:52.230Z,30.00
2022-09-16T07:42:54.399Z,30.10
2022-09-16T07:45:57.947Z,30.00
2022-09-16T07:49:02.309Z,30.50
2022-09-16T07:52:04.327Z,29.70
2022-09-16T07:55:06.639Z,29.30
2022-09-16T07:58:08.631Z,28.40
2022-09-16T08:01:11.352Z,27.90
2022-09-16T08:04:14.484Z,27.70
2022-09-16T08:07:16.692Z,27.50
2022-09-16T08:10:18.779Z,27.20
2022-09-16T08:13:21.151Z,27.20
2022-09-16T08:16:23.564Z,27.10
2022-09-16T08:19:25.837Z,27.70
2022-09-16T08:22:27.959Z,28.60
2022-09-16T08:25:30.022Z,29.20
2022-09-16T08:28:45.129Z,30.00
2022-09-16T08:31:55.668Z,31.30
2022-09-16T08:34:58.606Z,31.80
2022-09-16T08:38:00.885Z,31.70
2022-09-16T08:41:06.106Z,32.40
2022-09-16T08:44:17.146Z,32.70
2022-09-16T08:47:34.269Z,31.90
2022-09-16T08:50:40.426Z,31.60
2022-09-16T08:53:51.207Z,31.80
2022-09-16T08:56:57.902Z,32.70
2022-09-16T09:00:14.346Z,34.10
2022-09-16T09:03:16.356Z,34.80
2022-09-16T09:06:45.056Z,35.80
2022-09-16T09:10:05.962Z,36.10
2022-09-16T09:13:29.216Z,36.10
2022-09-16T09:16:44.779Z,35.70
2022-09-16T09:20:05.225Z,36.10
2022-09-16T09:23:23.645Z,35.50
2022-09-16T09:26:51.656Z,35.20
2022-09-16T09:30:00.414Z,35.10
2022-09-16T09:33:44.376Z,35.10
2022-09-16T09:36:57.140Z,35.30
2022-09-16T09:40:23.650Z,35.50
2022-09-16T09:43:47.333Z,36.60
2022-09-16T09:46:53.233Z,36.80
2022-09-16T09:50:03.510Z,37.00
2022-09-16T09:53:55.895Z,37.40
2022-09-16T09:57:12.689Z,37.00
2022-09-16T10:00:22.161Z,37.70
2022-09-16T10:03:25.123Z,37.20
2022-09-16T10:06:34.180Z,37.00
2022-09-16T10:09:44.896Z,35.60
2022-09-16T10:12:47.392Z,34.70
2022-09-16T10:15:55.611Z,33.60
2022-09-16T10:19:00.906Z,32.50
2022-09-16T10:22:17.646Z,32.40
2022-09-16T10:25:26.541Z,32.30
2022-09-16T10:28:29.162Z,32.40
2022-09-16T10:31:37.802Z,32.30
2022-09-16T10:34:42.407Z,32.50
2022-09-16T10:37:57.125Z,33.20
2022-09-16T10:41:08.715Z,34.10
2022-09-16T10:44:18.781Z,34.80
2022-09-16T10:47:33.984Z,36.00
2022-09-16T10:50:36.134Z,36.70
2022-09-16T10:53:44.068Z,35.40
2022-09-16T10:56:50.574Z,34.20
2022-09-16T11:00:31.699Z,33.10
2022-09-16T11:03:59.225Z,33.40
2022-09-16T11:07:11.087Z,34.10
2022-09-16T11:10:23.482Z,35.00
2022-09-16T11:13:30.690Z,35.90
2022-09-16T11:16:54.706Z,35.70
2022-09-16T11:20:24.577Z,34.60
2022-09-16T11:23:47.644Z,34.10
2022-09-16T11:27:12.803Z,34.10
2022-09-16T11:30:18.528Z,34.40
2022-09-16T11:33:54.316Z,34.80
2022-09-16T11:37:14.498Z,34.70
2022-09-16T11:40:22.317Z,34.70
2022-09-16T11:43:36.257Z,33.70
2022-09-16T11:46:52.994Z,33.00
2022-09-16T11:50:05.850Z,32.60
2022-09-16T11:53:36.953Z,31.40
2022-09-16T11:56:54.654Z,30.50
2022-09-16T12:00:19.316Z,30.10
2022-09-16T12:03:45.122Z,29.50
2022-09-16T12:07:09.769Z,29.00
2022-09-16T12:10:31.043Z,28.40
2022-09-16T12:13:42.089Z,28.00
2022-09-16T12:16:49.771Z,28.20
2022-09-16T12:19:59.000Z,28.10
2022-09-16T12:23:14.826Z,28.10
2022-09-16T12:26:25.939Z,28.20
2022-09-16T12:29:51.255Z,28.10
2022-09-16T12:33:17.407Z,28.40
2022-09-16T12:36:27.204Z,28.80
2022-09-16T12:39:29.361Z,29.10
2022-09-16T12:42:53.741Z,29.20
2022-09-16T12:45:58.890Z,29.00
2022-09-16T12:49:20.652Z,29.20
2022-09-16T12:53:00.075Z,29.20
2022-09-16T12:56:29.254Z,29.30
2022-09-16T12:59:58.909Z,29.30
2022-09-16T13:03:26.704Z,29.30
2022-09-16T13:06:31.215Z,29.50
2022-09-16T13:09:38.951Z,29.70
2022-09-16T13:12:44.414Z,29.90
2022-09-16T13:15:59.972Z,29.90
2022-09-16T13:19:34.713Z,29.90
2022-09-16T13:22:45.986Z,29.90
2022-09-16T13:25:59.236Z,30.00
2022-09-16T13:29:01.361Z,29.90
2022-09-16T13:32:04.502Z,29.60
2022-09-16T13:35:18.973Z,29.70
2022-09-16T13:38:24.476Z,29.60
2022-09-16T13:41:45.638Z,29.40
2022-09-16T13:44:47.746Z,29.10
2022-09-16T13:47:51.305Z,29.10
2022-09-16T13:51:01.551Z,29.00
2022-09-16T13:54:04.996Z,28.80
2022-09-16T13:57:31.945Z,28.70
2022-09-16T14:01:03.792Z,28.50
2022-09-16T14:04:28.368Z,28.10
2022-09-16T14:07:36.049Z,27.90
2022-09-16T14:11:01.325Z,27.60
2022-09-16T14:14:30.014Z,27.60
2022-09-16T14:17:41.246Z,27.80
2022-09-16T14:21:22.435Z,28.00
2022-09-16T14:24:24.540Z,28.00
2022-09-16T14:27:36.764Z,28.30
2022-09-16T14:30:46.746Z,28.30
2022-09-16T14:33:56.326Z,28.50
2022-09-16T14:36:59.233Z,28.60
2022-09-16T14:40:13.147Z,28.70
2022-09-16T14:43:20.017Z,28.60
2022-09-16T14:46:22.506Z,28.60
2022-09-16T14:49:24.989Z,28.50
2022-09-16T14:52:29.911Z,28.40
2022-09-16T14:55:36.363Z,28.50
2022-09-16T14:58:38.584Z,28.40
2022-09-16T15:01:41.456Z,28.30
2022-09-16T15:04:46.845Z,28.10
2022-09-16T15:08:12.801Z,27.90
2022-09-16T15:12:46.715Z,28.00
2022-09-16T15:14:38.825Z,28.10
2022-09-16T15:17:43.279Z,28.10
2022-09-16T15:20:52.347Z,28.00
2022-09-16T15:23:59.144Z,28.00
2022-09-16T15:27:02.081Z,28.00
2022-09-16T15:30:20.774Z,27.90
2022-09-16T15:33:34.865Z,28.00
2022-09-16T15:36:41.159Z,27.90
2022-09-16T15:39:43.241Z,28.00
2022-09-16T15:42:46.020Z,28.20
2022-09-16T15:46:06.870Z,28.20
2022-09-16T15:49:16.488Z,28.10
2022-09-16T15:52:18.711Z,28.10
2022-09-16T15:55:54.179Z,28.10
2022-09-16T15:59:23.398Z,28.10
2022-09-16T16:02:52.034Z,28.20
2022-09-16T16:05:55.054Z,28.30
2022-09-16T16:08:58.287Z,28.20
2022-09-16T16:12:07.691Z,28.30
2022-09-16T16:15:09.872Z,28.30
2022-09-16T16:18:12.726Z,28.30
2022-09-16T16:21:16.781Z,28.30
2022-09-16T16:24:18.935Z,28.30
2022-09-16T16:27:20.955Z,28.30
2022-09-16T16:30:22.996Z,28.20
2022-09-16T16:33:25.023Z,28.20
2022-09-16T16:36:27.204Z,28.20
2022-09-16T16:39:29.403Z,28.20
2022-09-16T16:42:31.701Z,28.20
2022-09-16T16:45:33.716Z,28.10
2022-09-16T16:48:35.863Z,28.00
2022-09-16T16:51:37.935Z,28.00
2022-09-16T16:54:40.370Z,27.90
2022-09-16T16:57:42.751Z,27.90
2022-09-16T17:00:45.531Z,27.80
2022-09-16T17:03:50.100Z,27.60
2022-09-16T17:07:14.475Z,27.50
2022-09-16T17:10:20.365Z,27.50
2022-09-16T17:13:22.604Z,27.50
2022-09-16T17:16:25.814Z,27.50
2022-09-16T17:19:28.399Z,27.20
2022-09-16T17:22:32.322Z,27.10
2022-09-16T17:25:34.337Z,26.90
2022-09-16T17:28:40.514Z,26.80
2022-09-16T17:31:43.411Z,26.70
2022-09-16T17:34:45.557Z,26.80
2022-09-16T17:37:47.611Z,26.60
2022-09-16T17:40:49.684Z,26.60
2022-09-16T17:43:51.794Z,26.40
2022-09-16T17:46:53.923Z,26.30
2022-09-16T17:49:56.931Z,26.20
2022-09-16T17:52:58.983Z,26.10
2022-09-16T17:56:19.269Z,26.00
2022-09-16T17:59:21.292Z,26.00
2022-09-16T18:02:24.344Z,25.90
2022-09-16T18:05:29.964Z,25.80
2022-09-16T18:08:32.693Z,25.70
2022-09-16T18:11:36.314Z,25.70
2022-09-16T18:14:38.330Z,25.60
2022-09-16T18:17:40.425Z,25.60
2022-09-16T18:20:42.586Z,25.60
2022-09-16T18:23:45.681Z,25.70
2022-09-16T18:26:47.712Z,25.60
2022-09-16T18:29:49.711Z,25.60
2022-09-16T18:32:52.758Z,25.40
2022-09-16T18:36:03.130Z,25.40
2022-09-16T18:39:07.138Z,25.30
2022-09-16T18:42:09.010Z,25.10
2022-09-16T18:45:11.114Z,25.00
2022-09-16T18:48:13.131Z,24.90
2022-09-16T18:51:20.132Z,24.90
2022-09-16T18:54:29.993Z,24.70
2022-09-16T18:57:32.082Z,24.60
2022-09-16T19:00:35.053Z,24.50
2022-09-16T19:03:37.230Z,24.40
2022-09-16T19:06:41.486Z,24.30
2022-09-16T19:09:45.512Z,24.30
2022-09-16T19:12:48.255Z,24.10
2022-09-16T19:15:55.451Z,24.00
2022-09-16T19:18:57.783Z,24.00
2022-09-16T19:21:59.776Z,24.00
2022-09-16T19:25:01.902Z,23.90
2022-09-16T19:28:05.156Z,23.90
2022-09-16T19:31:09.687Z,23.90
2022-09-16T19:34:12.822Z,23.80
2022-09-16T19:37:15.827Z,23.80
2022-09-16T19:40:18.701Z,23.60
2022-09-16T19:43:20.766Z,23.70
2022-09-16T19:46:24.085Z,23.70
2022-09-16T19:49:27.098Z,23.60
2022-09-16T19:52:29.990Z,23.60
2022-09-16T19:55:32.176Z,23.60
2022-09-16T19:58:36.281Z,23.50
2022-09-16T20:01:38.844Z,23.50
2022-09-16T20:04:44.039Z,23.50
2022-09-16T20:07:50.616Z,23.50
2022-09-16T20:10:53.453Z,23.40
2022-09-16T20:14:05.845Z,23.40
2022-09-16T20:17:08.329Z,23.30
2022-09-16T20:20:10.589Z,23.30
2022-09-16T20:23:17.967Z,23.20
2022-09-16T20:26:21.256Z,23.20
2022-09-16T20:29:23.805Z,23.20
2022-09-16T20:32:25.870Z,23.20
2022-09-16T20:35:33.022Z,23.20
2022-09-16T20:38:37.077Z,23.10
2022-09-16T20:41:40.543Z,23.20
2022-09-16T20:44:46.390Z,23.20
2022-09-16T20:47:52.280Z,23.20
2022-09-16T20:50:55.661Z,23.20
2022-09-16T20:54:07.780Z,23.10
2022-09-16T20:57:11.768Z,23.10
2022-09-16T21:00:14.514Z,23.10
2022-09-16T21:03:16.505Z,23.10
2022-09-16T21:06:19.773Z,23.10
2022-09-16T21:09:22.228Z,23.10
2022-09-16T21:12:24.258Z,23.10
2022-09-16T21:15:26.411Z,23.10
2022-09-16T21:18:28.907Z,23.00
2022-09-16T21:21:32.098Z,23.00
2022-09-16T21:24:36.210Z,23.00
2022-09-16T21:27:39.516Z,23.00
2022-09-16T21:30:42.180Z,23.00
2022-09-16T21:33:45.505Z,22.90
2022-09-16T21:36:50.131Z,22.90
2022-09-16T21:39:52.499Z,22.90
2022-09-16T21:42:55.522Z,22.90
2022-09-16T21:45:58.325Z,22.80
2022-09-16T21:49:02.515Z,22.80
2022-09-16T21:52:04.481Z,22.70
2022-09-16T21:55:06.813Z,22.60
2022-09-16T21:58:09.292Z,22.60
2022-09-16T22:01:20.269Z,22.50
2022-09-16T22:04:25.306Z,22.60
2022-09-16T22:07:27.919Z,22.50
2022-09-16T22:10:31.130Z,22.50
2022-09-16T22:13:34.243Z,22.50
2022-09-16T22:16:37.988Z,22.50
2022-09-16T22:19:41.264Z,22.50
2022-09-16T22:22:43.343Z,22.50
2022-09-16T22:25:45.763Z,22.50
2022-09-16T22:28:49.320Z,22.40
2022-09-16T22:31:51.430Z,22.40
2022-09-16T22:34:53.461Z,22.30
2022-09-16T22:37:56.504Z,22.20
2022-09-16T22:41:10.023Z,22.20
2022-09-16T22:44:13.083Z,22.20
2022-09-16T22:47:16.324Z,22.10
2022-09-16T22:50:19.802Z,22.20
2022-09-16T22:53:22.315Z,22.20
2022-09-16T22:56:29.492Z,22.10
2022-09-16T22:59:34.951Z,22.10
2022-09-16T23:03:01.069Z,22.10
2022-09-16T23:06:05.994Z,22.10
2022-09-16T23:09:09.501Z,22.00
2022-09-16T23:12:11.761Z,22.00
2022-09-16T23:15:14.095Z,22.00
2022-09-16T23:18:18.834Z,22.00
2022-09-16T23:21:22.033Z,22.00
2022-09-16T23:24:24.137Z,22.00
2022-09-16T23:27:26.220Z,22.10
2022-09-16T23:30:28.239Z,22.10
2022-09-16T23:33:30.529Z,22.10
2022-09-16T23:36:33.088Z,22.10
2022-09-16T23:39:35.094Z,22.10
2022-09-16T23:42:37.215Z,22.00
2022-09-16T23:45:39.300Z,22.00
2022-09-16T23:48:43.213Z,22.10
2022-09-16T23:51:47.018Z,22.00
2022-09-16T23:54:49.161Z,22.00
2022-09-16T23:57:54.485Z,22.10
